South Byron, Wisconsin
Current Conditions -  °F | °C
As of 10:53 AM on Thursday 30 Oct 2014 (Local Time) from KFLD Reporting Station
Clear Clear  
Wind Chill: 44°   Ceiling: Unl
Heat Index: 44°   Visibility: 10mi
Dew Point: 36°   Wind: 3mph
Humidity: 73%   Direction: 220°SW
Pressure: 30.09"   Gusts: NA
Location:  43.6092°N, 88.5191°W
Report Text: KFLD 301553Z AUTO 22003KT 10SM CLR 07/02 A3009 RMK AO2 SLP197 T00670022
Loading
Personal Weather Stations






























Interactive Weather Map
Tropical Storm Tracking
New forecast layout! Learn more

10-Day Weather Forecast

Advertisements
Track Severe Weather on mobile